Time;durP1;ratioP1;P1;durP2;ratioP2;P2;SDS_P1;SDS_P2;PMS_P1;PMS_P2;Temp;Humidity;BMP_temperature;BMP_pressure;BME280_temperature;BME280_humidity;BME280_pressure;Samples;Min_cycle;Max_cycle;Signal;HPM_P1;HPM_P2
2022/06/04 00:00:22;;;;;;;3.55;3.35;;;16.90;99.90;;;;;;5100952;28;20280;-72
2022/06/04 00:02:49;;;;;;;3.90;3.70;;;16.90;99.90;;;;;;5096708;28;20174;-73
2022/06/04 00:05:17;;;;;;;3.80;3.55;;;16.80;99.90;;;;;;5094698;28;20218;-73
2022/06/04 00:07:43;;;;;;;4.30;3.45;;;16.80;99.90;;;;;;5089095;28;20171;-73
2022/06/04 00:15:45;;;;;;;3.80;3.50;;;16.70;99.90;;;;;;5088899;28;20189;-73
2022/06/04 00:18:11;;;;;;;4.70;3.97;;;16.70;99.90;;;;;;5095480;28;20178;-73
2022/06/04 00:20:37;;;;;;;4.75;4.00;;;16.70;99.90;;;;;;5092501;28;20251;-73
2022/06/04 00:23:05;;;;;;;5.15;3.72;;;16.70;99.90;;;;;;5092342;28;20181;-72
2022/06/04 00:25:33;;;;;;;4.55;4.15;;;16.70;99.90;;;;;;5090302;28;20222;-72
2022/06/04 00:28:05;;;;;;;4.78;4.28;;;16.70;99.90;;;;;;5089358;28;20191;-73
2022/06/04 00:30:32;;;;;;;4.40;4.03;;;16.60;99.90;;;;;;5091605;28;20281;-73
2022/06/04 00:32:58;;;;;;;5.20;4.57;;;16.50;99.90;;;;;;5087499;28;20587;-73
2022/06/04 00:35:25;;;;;;;4.28;3.97;;;16.40;99.90;;;;;;5096353;28;20224;-73
2022/06/04 00:37:50;;;;;;;4.35;4.10;;;16.40;99.90;;;;;;5085876;28;20179;-73
2022/06/04 00:40:44;;;;;;;4.50;4.10;;;16.40;99.90;;;;;;5095667;28;20623;-73
2022/06/04 00:43:10;;;;;;;5.82;4.32;;;16.30;99.90;;;;;;5089712;28;20661;-73
2022/06/04 00:45:35;;;;;;;4.78;4.38;;;16.30;99.90;;;;;;5089996;28;20297;-73
2022/06/04 00:48:06;;;;;;;5.13;4.63;;;16.30;99.90;;;;;;5091419;28;20269;-73
2022/06/04 00:50:36;;;;;;;5.07;4.57;;;16.30;99.90;;;;;;5084503;28;20194;-73
2022/06/04 00:53:04;;;;;;;4.70;4.30;;;16.20;99.90;;;;;;5090757;28;20536;-72
2022/06/04 00:55:57;;;;;;;4.68;4.25;;;16.10;99.90;;;;;;5091913;28;20193;-72
2022/06/04 00:58:52;;;;;;;4.25;3.95;;;16.10;99.90;;;;;;5086573;28;20843;-72
2022/06/04 01:01:34;;;;;;;4.70;4.35;;;16.10;99.90;;;;;;5091140;28;20609;-72
2022/06/04 01:04:10;;;;;;;5.10;4.63;;;16.00;99.90;;;;;;5088996;28;20190;-72
2022/06/04 01:06:51;;;;;;;5.82;4.57;;;16.00;99.90;;;;;;5089517;28;20540;-72
2022/06/04 01:09:55;;;;;;;4.72;4.32;;;16.00;99.90;;;;;;5094599;28;20179;-72
2022/06/04 01:12:42;;;;;;;5.20;4.68;;;15.90;99.90;;;;;;5058124;28;20526;-72
2022/06/04 01:15:58;;;;;;;4.43;4.10;;;15.90;99.90;;;;;;5085052;28;20174;-71
2022/06/04 01:18:44;;;;;;;5.10;4.68;;;15.80;99.90;;;;;;5055931;28;20183;-73
2022/06/04 01:21:23;;;;;;;4.95;4.50;;;15.80;99.90;;;;;;5086336;28;20745;-74
2022/06/04 01:23:54;;;;;;;4.80;4.40;;;15.80;99.90;;;;;;5084746;28;20252;-74
2022/06/04 01:26:38;;;;;;;4.32;3.95;;;15.70;99.90;;;;;;5089400;28;20529;-73
2022/06/04 01:29:15;;;;;;;4.88;4.45;;;15.70;99.90;;;;;;5094290;28;20244;-73
2022/06/04 01:31:50;;;;;;;5.32;4.93;;;15.80;99.90;;;;;;5086107;28;20237;-72
2022/06/04 01:34:21;;;;;;;5.32;4.53;;;15.70;99.90;;;;;;5083483;28;20227;-72
2022/06/04 01:37:01;;;;;;;4.78;4.20;;;15.70;99.90;;;;;;5089994;28;20680;-72
2022/06/04 01:41:03;;;;;;;5.10;4.60;;;15.70;99.90;;;;;;5092431;28;20189;-72
2022/06/04 01:42:18;;;;;;;5.68;4.50;;;15.70;99.90;;;;;;5091912;28;20186;-72
2022/06/04 01:44:45;;;;;;;4.65;4.25;;;15.60;99.90;;;;;;5083432;28;20285;-72
2022/06/04 01:47:10;;;;;;;4.82;4.43;;;15.60;99.90;;;;;;5092016;28;20173;-72
2022/06/04 01:49:52;;;;;;;4.57;4.20;;;15.70;99.90;;;;;;5091626;28;20190;-72
2022/06/04 01:52:28;;;;;;;4.82;4.43;;;15.60;99.90;;;;;;5087278;28;20178;-72
2022/06/04 01:55:14;;;;;;;5.43;5.03;;;15.60;99.90;;;;;;5084263;28;20290;-75
2022/06/04 01:58:03;;;;;;;4.47;4.13;;;15.60;99.90;;;;;;5091395;28;20258;-72
2022/06/04 02:00:51;;;;;;;5.25;4.85;;;15.60;99.90;;;;;;5085005;28;20221;-72
2022/06/04 02:03:29;;;;;;;4.40;4.10;;;15.60;99.90;;;;;;5084509;28;20195;-72
2022/06/04 02:06:06;;;;;;;5.43;4.38;;;15.50;99.90;;;;;;5086041;28;20233;-72
2022/06/04 02:08:46;;;;;;;4.85;4.45;;;15.40;99.90;;;;;;5083284;28;20174;-72
2022/06/04 02:11:29;;;;;;;4.95;4.50;;;15.50;99.90;;;;;;5078441;28;20195;-72
2022/06/04 02:13:58;;;;;;;7.57;4.70;;;15.50;99.90;;;;;;5084273;28;20183;-72
2022/06/04 02:16:48;;;;;;;5.00;4.55;;;15.50;99.90;;;;;;5085458;28;20206;-72
2022/06/04 02:19:14;;;;;;;6.10;5.25;;;15.50;99.90;;;;;;5091360;28;20180;-72
2022/06/04 02:21:40;;;;;;;5.55;5.10;;;15.40;99.90;;;;;;5081036;28;20199;-72
2022/06/04 02:24:07;;;;;;;5.63;5.10;;;15.30;99.90;;;;;;5093944;28;20543;-77
2022/06/04 02:26:33;;;;;;;6.30;5.80;;;15.30;99.90;;;;;;5091704;28;20699;-72
2022/06/04 02:29:00;;;;;;;5.43;4.93;;;15.30;99.90;;;;;;5091814;28;20245;-72
2022/06/04 02:31:36;;;;;;;6.03;5.53;;;15.30;99.90;;;;;;5083985;28;20203;-75
2022/06/04 02:34:18;;;;;;;5.63;5.10;;;15.20;99.90;;;;;;5083464;28;20189;-73
2022/06/04 02:36:59;;;;;;;5.57;5.05;;;15.20;99.90;;;;;;5096368;28;20178;-72
2022/06/04 02:39:38;;;;;;;5.82;5.20;;;15.10;99.90;;;;;;5085604;28;20288;-72
2022/06/04 02:42:21;;;;;;;5.53;5.13;;;15.20;99.90;;;;;;5083154;28;20646;-73
2022/06/04 02:44:59;;;;;;;7.85;5.70;;;15.10;99.90;;;;;;5083035;28;20571;-72
2022/06/04 02:47:30;;;;;;;5.72;5.03;;;15.00;99.90;;;;;;5091504;28;20258;-72
2022/06/04 02:50:13;;;;;;;5.90;5.45;;;15.10;99.90;;;;;;5094045;28;20186;-72
2022/06/04 02:52:40;;;;;;;6.07;5.50;;;15.10;99.90;;;;;;5081386;28;20203;-72
2022/06/04 02:55:10;;;;;;;5.60;5.13;;;15.10;99.90;;;;;;5096466;28;20269;-72
2022/06/04 02:57:41;;;;;;;6.95;5.75;;;15.10;99.90;;;;;;5092752;28;20673;-72
2022/06/04 03:00:12;;;;;;;6.07;5.57;;;15.10;99.90;;;;;;5095455;28;20201;-72
2022/06/04 03:02:38;;;;;;;6.68;6.07;;;15.00;99.90;;;;;;5096579;28;20186;-72
2022/06/04 03:05:11;;;;;;;7.10;5.78;;;15.00;99.90;;;;;;5085497;28;20202;-72
2022/06/04 03:07:39;;;;;;;7.00;6.40;;;15.00;99.90;;;;;;5094906;28;20193;-72
2022/06/04 03:10:11;;;;;;;6.68;6.15;;;15.10;99.90;;;;;;5091513;28;20558;-74
2022/06/04 03:12:37;;;;;;;6.03;5.40;;;15.10;99.90;;;;;;5086906;28;20176;-72
2022/06/04 03:15:03;;;;;;;6.53;5.93;;;15.00;99.90;;;;;;5086659;28;20185;-71
2022/06/04 03:17:29;;;;;;;6.80;5.53;;;15.00;99.90;;;;;;5097597;28;20210;-73
2022/06/04 03:19:54;;;;;;;6.00;5.53;;;14.90;99.90;;;;;;5096072;28;20677;-73
2022/06/04 03:22:20;;;;;;;6.13;5.60;;;14.90;99.90;;;;;;5080935;28;20193;-72
2022/06/04 03:24:46;;;;;;;6.18;5.63;;;14.90;99.90;;;;;;5083779;28;20302;-74
2022/06/04 03:27:11;;;;;;;5.97;5.47;;;14.90;99.90;;;;;;5098304;28;20185;-74
2022/06/04 03:29:37;;;;;;;5.90;5.38;;;14.90;99.90;;;;;;5090239;28;20198;-73
2022/06/04 03:32:03;;;;;;;6.20;5.60;;;14.90;99.90;;;;;;5089601;28;20182;-73
2022/06/04 03:34:29;;;;;;;5.88;5.40;;;14.90;99.90;;;;;;5089974;28;20196;-73
2022/06/04 03:36:54;;;;;;;6.40;5.90;;;15.00;99.90;;;;;;5094694;28;20273;-72
2022/06/04 03:39:20;;;;;;;7.20;5.75;;;14.90;99.90;;;;;;5094255;28;20769;-73
2022/06/04 03:41:45;;;;;;;7.68;6.03;;;14.90;99.90;;;;;;5095549;28;20175;-72
2022/06/04 03:44:11;;;;;;;6.57;6.03;;;14.90;99.90;;;;;;5090123;28;20174;-73
2022/06/04 03:46:37;;;;;;;6.63;6.03;;;14.90;99.90;;;;;;5090494;28;20547;-72
2022/06/04 03:49:02;;;;;;;6.43;5.82;;;15.00;99.90;;;;;;5096163;28;20531;-73
2022/06/04 03:51:29;;;;;;;7.00;6.40;;;15.10;99.90;;;;;;5080774;28;20199;-72
2022/06/04 03:53:56;;;;;;;6.25;5.65;;;15.10;99.90;;;;;;5080564;28;20187;-72
2022/06/04 03:56:22;;;;;;;7.13;6.53;;;15.10;99.90;;;;;;5088944;28;20518;-73
2022/06/04 03:58:48;;;;;;;6.32;5.80;;;15.10;99.90;;;;;;5088200;28;20662;-74
2022/06/04 04:01:22;;;;;;;7.18;6.45;;;15.10;99.90;;;;;;5086663;28;20230;-74
2022/06/04 04:03:47;;;;;;;6.53;5.95;;;15.20;99.90;;;;;;5083167;28;20188;-73
2022/06/04 04:06:22;;;;;;;6.95;6.35;;;15.30;99.90;;;;;;5080815;28;20205;-73
2022/06/04 04:08:48;;;;;;;7.70;6.85;;;15.40;99.90;;;;;;5081562;28;20253;-73
2022/06/04 04:11:18;;;;;;;8.27;7.43;;;15.50;99.90;;;;;;5083351;28;20196;-74
2022/06/04 04:13:44;;;;;;;9.55;8.43;;;15.70;99.90;;;;;;5082029;28;20175;-74
2022/06/04 04:16:12;;;;;;;8.95;8.05;;;15.70;99.90;;;;;;5092421;28;20290;-74
2022/06/04 04:18:38;;;;;;;8.02;7.30;;;15.70;99.90;;;;;;5078950;28;20597;-74
2022/06/04 04:21:11;;;;;;;8.48;7.68;;;15.80;99.90;;;;;;5085266;28;20197;-73
2022/06/04 04:23:38;;;;;;;9.10;8.13;;;15.80;99.90;;;;;;5077742;28;20187;-74
2022/06/04 04:26:05;;;;;;;8.68;7.97;;;15.80;99.90;;;;;;5081001;28;20206;-74
2022/06/04 04:28:31;;;;;;;7.75;7.05;;;15.90;99.90;;;;;;5082701;28;20281;-74
2022/06/04 04:30:57;;;;;;;7.28;6.55;;;15.90;99.90;;;;;;5084677;28;20282;-73
2022/06/04 04:33:23;;;;;;;7.47;6.68;;;16.00;99.90;;;;;;5080616;28;20183;-71
2022/06/04 04:35:49;;;;;;;7.00;6.30;;;16.10;99.90;;;;;;5079498;28;20421;-73
2022/06/04 04:38:18;;;;;;;8.63;7.75;;;16.30;99.90;;;;;;5087751;28;20545;-73
2022/06/04 04:40:45;;;;;;;8.80;8.00;;;16.50;99.90;;;;;;5079343;28;20202;-73
2022/06/04 04:43:11;;;;;;;9.13;8.27;;;16.60;99.90;;;;;;5079988;28;20177;-73
2022/06/04 04:45:37;;;;;;;8.77;8.07;;;16.70;99.90;;;;;;5088252;28;20214;-73
2022/06/04 04:48:03;;;;;;;8.55;7.85;;;16.80;99.90;;;;;;5088692;28;20178;-73
2022/06/04 04:50:35;;;;;;;10.45;8.65;;;16.80;99.90;;;;;;5084252;28;20202;-72
2022/06/04 04:53:04;;;;;;;9.00;8.20;;;16.90;99.90;;;;;;5084286;28;20217;-72
2022/06/04 04:55:30;;;;;;;10.68;8.80;;;17.10;99.90;;;;;;5083333;28;20186;-73
2022/06/04 04:57:56;;;;;;;9.82;8.93;;;17.10;99.90;;;;;;5085767;28;20668;-73
2022/06/04 05:00:22;;;;;;;10.77;9.00;;;17.20;99.90;;;;;;5082189;28;20214;-73
2022/06/04 05:02:48;;;;;;;9.45;8.60;;;17.30;99.90;;;;;;5076505;28;20602;-73
2022/06/04 05:05:14;;;;;;;9.88;8.73;;;17.40;99.90;;;;;;5084631;28;20247;-74
2022/06/04 05:07:41;;;;;;;9.15;8.35;;;17.60;99.90;;;;;;5086637;28;20178;-75
2022/06/04 05:10:07;;;;;;;10.32;9.20;;;17.70;99.90;;;;;;5093376;28;20202;-72
2022/06/04 05:12:33;;;;;;;11.38;9.88;;;17.70;99.90;;;;;;5086303;28;20217;-75
2022/06/04 05:14:58;;;;;;;10.02;9.23;;;17.70;99.90;;;;;;5090589;28;20212;-72
2022/06/04 05:17:24;;;;;;;9.85;9.05;;;17.80;99.90;;;;;;5085804;28;20225;-72
2022/06/04 05:19:50;;;;;;;9.40;8.55;;;17.80;99.90;;;;;;5091743;28;20198;-73
2022/06/04 05:22:15;;;;;;;9.65;8.75;;;17.90;99.90;;;;;;5089509;28;20668;-73
2022/06/04 05:24:43;;;;;;;8.70;7.90;;;18.10;99.90;;;;;;5086410;28;20684;-73
2022/06/04 05:27:09;;;;;;;8.68;7.88;;;18.40;99.90;;;;;;5089394;28;20178;-73
2022/06/04 05:29:36;;;;;;;8.77;7.90;;;18.60;99.90;;;;;;5082199;28;20198;-73
2022/06/04 05:32:02;;;;;;;9.07;8.32;;;18.70;99.90;;;;;;5092537;28;20165;-73
2022/06/04 05:34:29;;;;;;;8.88;8.10;;;18.70;99.90;;;;;;5083477;28;20178;-73
2022/06/04 05:36:55;;;;;;;8.70;7.90;;;18.70;99.90;;;;;;5085195;28;20179;-74
2022/06/04 05:39:22;;;;;;;8.90;8.20;;;18.70;99.90;;;;;;5093449;28;20213;-74
2022/06/04 05:41:48;;;;;;;8.13;7.03;;;18.90;99.90;;;;;;5094676;28;20257;-76
2022/06/04 05:44:15;;;;;;;8.50;7.68;;;19.10;99.90;;;;;;5091016;28;20256;-75
2022/06/04 05:46:42;;;;;;;7.68;7.07;;;19.20;99.90;;;;;;5088616;28;20212;-75
2022/06/04 05:49:12;;;;;;;8.43;7.65;;;19.30;99.90;;;;;;5091879;28;20666;-75
2022/06/04 05:51:40;;;;;;;8.15;7.45;;;19.30;99.90;;;;;;5085812;28;20205;-74
2022/06/04 05:54:06;;;;;;;7.63;7.03;;;19.30;99.90;;;;;;5083184;28;20265;-74
2022/06/04 05:56:36;;;;;;;7.97;7.20;;;19.40;99.90;;;;;;5086873;28;20269;-74
2022/06/04 05:59:05;;;;;;;9.38;7.35;;;19.50;99.90;;;;;;5089234;28;20262;-74
2022/06/04 06:01:32;;;;;;;8.30;7.60;;;19.50;99.90;;;;;;5093266;28;20608;-74
2022/06/04 06:03:58;;;;;;;8.13;7.38;;;19.30;99.90;;;;;;5089573;28;20210;-73
2022/06/04 06:06:28;;;;;;;7.68;7.07;;;19.30;99.90;;;;;;5091117;28;20214;-74
2022/06/04 06:08:55;;;;;;;8.32;7.53;;;19.30;99.90;;;;;;5093070;28;20186;-74
2022/06/04 06:11:22;;;;;;;9.35;8.45;;;19.30;99.90;;;;;;5093379;28;20590;-74
2022/06/04 06:13:49;;;;;;;8.30;7.68;;;19.30;99.90;;;;;;5088404;28;20182;-75
2022/06/04 06:16:18;;;;;;;8.48;7.78;;;19.60;99.90;;;;;;5090080;28;20256;-74
2022/06/04 06:18:44;;;;;;;7.40;6.70;;;19.70;99.90;;;;;;5091875;28;20178;-75
2022/06/04 06:21:15;;;;;;;8.10;7.50;;;19.90;99.90;;;;;;5091028;28;20209;-73
2022/06/04 06:23:42;;;;;;;7.65;6.97;;;19.90;99.90;;;;;;5094755;28;20242;-74
2022/06/04 06:26:16;;;;;;;7.60;7.00;;;19.90;99.90;;;;;;5093369;28;20194;-75
2022/06/04 06:28:43;;;;;;;8.48;6.95;;;20.10;99.90;;;;;;5086017;28;20186;-74
2022/06/04 06:31:11;;;;;;;6.97;6.43;;;20.10;99.90;;;;;;5092999;28;20219;-76
2022/06/04 06:33:37;;;;;;;7.00;6.40;;;20.10;99.90;;;;;;5091451;28;20629;-75
2022/06/04 06:36:09;;;;;;;6.82;6.30;;;20.20;99.90;;;;;;5103733;28;20261;-79
2022/06/04 06:38:35;;;;;;;6.95;6.47;;;20.20;99.90;;;;;;5093908;28;20240;-76
2022/06/04 06:41:03;;;;;;;7.20;6.60;;;20.30;99.90;;;;;;5090313;28;20194;-74
2022/06/04 06:43:38;;;;;;;7.28;6.68;;;20.30;99.90;;;;;;5085325;28;20175;-72
2022/06/04 06:46:10;;;;;;;6.90;6.30;;;20.40;99.90;;;;;;5092725;28;20220;-72
2022/06/04 06:48:37;;;;;;;5.68;5.30;;;20.40;99.90;;;;;;5090027;28;20263;-74
2022/06/04 06:51:20;;;;;;;6.32;5.85;;;20.50;99.90;;;;;;5091902;28;20231;-72
2022/06/04 06:53:45;;;;;;;5.35;4.97;;;20.60;99.90;;;;;;5088880;28;20177;-72
2022/06/04 06:56:17;;;;;;;5.47;5.07;;;20.80;99.90;;;;;;5094248;28;20178;-72
2022/06/04 06:58:43;;;;;;;6.07;5.68;;;20.90;99.90;;;;;;5089044;28;20244;-73
2022/06/04 07:01:11;;;;;;;5.38;5.00;;;21.20;99.90;;;;;;5090109;28;20242;-72
2022/06/04 07:03:40;;;;;;;5.78;5.28;;;21.40;99.90;;;;;;5086262;28;20194;-72
2022/06/04 07:06:09;;;;;;;4.28;3.97;;;21.70;99.90;;;;;;5100375;28;20201;-72
2022/06/04 07:08:35;;;;;;;4.70;4.30;;;21.90;99.90;;;;;;5089728;28;20179;-72
2022/06/04 07:11:01;;;;;;;4.75;4.28;;;22.10;99.90;;;;;;5092930;28;20203;-72
2022/06/04 07:13:27;;;;;;;5.18;4.20;;;22.30;99.90;;;;;;5096413;28;20244;-72
2022/06/04 07:15:52;;;;;;;4.60;4.30;;;22.40;99.90;;;;;;5090771;28;20646;-72
2022/06/04 07:18:18;;;;;;;4.88;4.47;;;22.50;99.90;;;;;;5090792;28;20186;-72
2022/06/04 07:20:45;;;;;;;3.92;3.70;;;22.40;99.90;;;;;;5089481;28;20244;-71
2022/06/04 07:23:11;;;;;;;4.57;4.28;;;22.30;99.90;;;;;;5091928;28;20198;-72
2022/06/04 07:25:39;;;;;;;3.92;3.72;;;22.30;99.90;;;;;;5087838;28;20199;-72
2022/06/04 07:28:05;;;;;;;4.15;3.80;;;22.30;99.90;;;;;;5091567;28;20189;-72
2022/06/04 07:30:30;;;;;;;5.13;4.72;;;22.40;99.90;;;;;;5093489;28;20194;-71
2022/06/04 07:32:56;;;;;;;4.15;3.75;;;22.50;99.90;;;;;;5088939;28;20186;-71
2022/06/04 07:35:22;;;;;;;4.13;3.80;;;22.50;99.90;;;;;;5084092;28;20182;-71
2022/06/04 07:37:48;;;;;;;3.78;3.47;;;22.40;99.90;;;;;;5088998;28;20535;-72
2022/06/04 07:40:14;;;;;;;5.28;4.88;;;22.30;99.90;;;;;;5092142;28;20202;-72
2022/06/04 07:42:39;;;;;;;4.18;3.88;;;22.30;99.90;;;;;;5091536;28;20710;-72
2022/06/04 07:45:06;;;;;;;3.65;3.45;;;22.30;99.90;;;;;;5094240;28;20203;-72
2022/06/04 07:47:34;;;;;;;4.30;3.90;;;22.50;99.90;;;;;;5091926;28;20499;-72
2022/06/04 07:50:00;;;;;;;4.18;3.83;;;22.70;99.90;;;;;;5088831;28;20197;-72
2022/06/04 07:52:26;;;;;;;4.75;4.38;;;22.70;99.90;;;;;;5082954;28;20183;-72
2022/06/04 07:54:52;;;;;;;3.88;3.55;;;22.80;99.90;;;;;;5096246;28;20261;-72
2022/06/04 07:57:18;;;;;;;4.05;3.63;;;22.90;99.90;;;;;;5083393;28;20185;-72
2022/06/04 07:59:43;;;;;;;4.28;3.97;;;23.20;99.90;;;;;;5085571;28;20210;-72
2022/06/04 08:02:10;;;;;;;4.78;4.38;;;23.70;99.90;;;;;;5091148;28;20178;-72
2022/06/04 08:04:36;;;;;;;4.30;4.00;;;24.10;99.90;;;;;;5091046;28;20293;-72
2022/06/04 08:07:04;;;;;;;4.32;4.03;;;24.30;99.90;;;;;;5091988;28;20253;-73
2022/06/04 08:09:30;;;;;;;4.60;4.20;;;24.40;99.90;;;;;;5090593;28;20228;-72
2022/06/04 08:11:56;;;;;;;4.45;3.78;;;24.40;99.90;;;;;;5090658;28;20190;-71
2022/06/04 08:14:24;;;;;;;3.95;3.65;;;24.40;99.90;;;;;;5089965;28;20175;-71
2022/06/04 08:16:56;;;;;;;4.85;4.32;;;24.50;99.90;;;;;;5086131;28;20174;-72
2022/06/04 08:19:24;;;;;;;4.82;4.53;;;24.60;99.90;;;;;;5087415;28;20171;-72
2022/06/04 08:21:50;;;;;;;4.80;4.43;;;24.60;99.90;;;;;;5087811;28;20176;-71
2022/06/04 08:24:16;;;;;;;4.22;3.92;;;24.70;99.90;;;;;;5083389;28;20183;-72
2022/06/04 08:26:45;;;;;;;4.50;4.10;;;24.50;99.90;;;;;;5083340;28;20193;-72
2022/06/04 08:29:11;;;;;;;4.80;4.38;;;24.50;99.90;;;;;;5089127;28;20191;-72
2022/06/04 08:31:37;;;;;;;4.82;4.45;;;24.60;99.90;;;;;;5082711;28;20345;-71
2022/06/04 08:34:03;;;;;;;6.63;3.92;;;24.60;99.90;;;;;;5085854;28;20185;-73
2022/06/04 08:36:29;;;;;;;4.07;3.78;;;25.30;99.90;;;;;;5093876;28;20257;-72
2022/06/04 08:38:55;;;;;;;4.03;3.72;;;26.00;99.90;;;;;;5088226;28;20179;-72
2022/06/04 08:41:37;;;;;;;3.67;3.40;;;26.50;99.90;;;;;;5083448;28;20205;-73
2022/06/04 08:44:09;;;;;;;3.38;2.60;;;26.70;99.90;;;;;;5090754;28;20179;-73
2022/06/04 08:46:38;;;;;;;3.80;3.50;;;26.60;99.90;;;;;;5082135;28;20214;-73
2022/06/04 08:49:13;;;;;;;3.42;3.13;;;26.50;99.90;;;;;;5093522;28;20178;-72
2022/06/04 08:51:40;;;;;;;3.97;3.58;;;26.20;99.90;;;;;;5084447;28;20201;-71
2022/06/04 09:00:03;;;;;;;4.82;4.53;;;25.60;99.90;;;;;;5082244;28;20299;-72
2022/06/04 09:02:52;;;;;;;4.93;4.63;;;26.00;99.90;;;;;;5083960;28;20191;-72
2022/06/04 09:05:18;;;;;;;5.55;5.07;;;26.00;99.90;;;;;;5082041;27;20206;-72
2022/06/04 09:07:52;;;;;;;9.20;5.22;;;26.10;99.90;;;;;;5080735;28;20174;-72
2022/06/04 09:10:34;;;;;;;8.40;7.70;;;26.30;99.90;;;;;;5081104;28;20246;-73
2022/06/04 09:13:15;;;;;;;9.55;8.70;;;26.50;99.90;;;;;;5092659;28;20304;-73
2022/06/04 09:15:48;;;;;;;9.35;8.50;;;26.50;99.90;;;;;;5089547;28;20183;-74
2022/06/04 09:18:18;;;;;;;9.23;8.43;;;26.40;99.90;;;;;;5084252;28;20554;-72
2022/06/04 09:20:47;;;;;;;9.77;8.98;;;26.50;99.90;;;;;;5088194;28;20791;-72
2022/06/04 09:23:45;;;;;;;9.02;8.23;;;26.90;99.90;;;;;;5092310;28;20655;-72
2022/06/04 09:26:13;;;;;;;8.10;7.50;;;27.60;99.90;;;;;;5087452;28;20702;-71
2022/06/04 09:29:06;;;;;;;8.93;8.25;;;28.10;99.90;;;;;;5087772;28;20191;-73
2022/06/04 09:31:57;;;;;;;9.02;8.30;;;28.30;99.90;;;;;;5081835;28;20195;-72
2022/06/04 09:34:28;;;;;;;8.10;7.43;;;28.40;99.90;;;;;;5091156;28;20175;-71
2022/06/04 09:36:54;;;;;;;7.60;7.10;;;28.60;99.90;;;;;;5085602;28;20701;-71
2022/06/04 09:39:26;;;;;;;7.60;7.00;;;29.00;99.90;;;;;;5083305;28;20175;-71
2022/06/04 09:42:10;;;;;;;6.68;5.95;;;29.80;99.90;;;;;;5086052;28;20538;-71
2022/06/04 09:44:48;;;;;;;7.65;7.05;;;30.50;99.90;;;;;;5086695;28;20214;-72
2022/06/04 09:47:28;;;;;;;7.65;7.15;;;31.30;99.90;;;;;;5090680;28;20178;-73
2022/06/04 09:50:17;;;;;;;7.53;6.78;;;32.60;96.80;;;;;;5081207;28;20222;-73
2022/06/04 09:52:45;;;;;;;5.97;5.57;;;33.70;93.90;;;;;;5084033;28;20185;-71
2022/06/04 09:55:22;;;;;;;7.53;6.93;;;35.20;88.30;;;;;;5093730;28;20208;-70
2022/06/04 09:58:01;;;;;;;6.43;6.03;;;36.10;78.50;;;;;;5090415;28;20208;-71
2022/06/04 10:00:38;;;;;;;6.72;6.22;;;34.90;79.20;;;;;;5090684;28;20204;-72
2022/06/04 10:03:15;;;;;;;6.70;6.20;;;34.60;80.80;;;;;;5088475;28;20188;-71
2022/06/04 10:06:09;;;;;;;7.32;6.72;;;35.00;78.90;;;;;;5089175;28;20548;-70
2022/06/04 10:11:23;;;;;;;6.00;5.60;;;33.90;79.50;;;;;;5086316;28;20790;-71
2022/06/04 10:13:51;;;;;;;7.03;6.38;;;34.80;76.90;;;;;;5084313;28;20190;-71
2022/06/04 10:16:37;;;;;;;6.75;6.25;;;36.00;75.60;;;;;;5096261;28;20177;-71
2022/06/04 10:19:21;;;;;;;6.88;6.38;;;35.90;73.70;;;;;;5097445;28;20501;-70
2022/06/04 10:21:50;;;;;;;7.03;6.30;;;34.70;75.80;;;;;;5089277;28;21576;-71
2022/06/04 10:24:20;;;;;;;5.50;5.10;;;33.40;80.00;;;;;;5089077;28;20192;-71
2022/06/04 10:27:04;;;;;;;5.95;5.55;;;32.40;81.00;;;;;;5091240;28;20179;-71
2022/06/04 10:29:55;;;;;;;5.82;5.43;;;31.80;82.60;;;;;;5091611;28;20698;-71
2022/06/04 10:32:54;;;;;;;6.07;5.50;;;31.10;86.70;;;;;;5085571;28;20229;-71
2022/06/04 10:35:25;;;;;;;6.78;6.10;;;30.70;88.60;;;;;;5090211;28;20187;-70
2022/06/04 10:38:06;;;;;;;6.13;5.63;;;30.70;88.70;;;;;;5094536;28;20197;-71
2022/06/04 10:40:56;;;;;;;5.80;5.30;;;30.60;90.30;;;;;;5084770;28;20198;-71
2022/06/04 10:43:45;;;;;;;5.78;5.28;;;30.40;90.90;;;;;;5088946;28;20184;-71
2022/06/04 10:46:35;;;;;;;5.70;5.30;;;30.60;90.30;;;;;;5090800;28;20255;-70
2022/06/04 10:49:12;;;;;;;7.25;6.30;;;30.50;90.70;;;;;;5092150;28;20185;-70
2022/06/04 10:51:41;;;;;;;8.02;6.22;;;30.40;91.70;;;;;;5086003;28;20206;-70
2022/06/04 10:54:12;;;;;;;6.78;6.20;;;30.50;92.40;;;;;;5091609;28;20166;-71
2022/06/04 10:56:46;;;;;;;7.35;6.75;;;30.60;91.70;;;;;;5089867;28;20285;-70
2022/06/04 10:59:27;;;;;;;6.70;6.30;;;30.30;91.70;;;;;;5091158;28;20528;-70
2022/06/04 11:02:00;;;;;;;6.70;6.20;;;29.90;91.80;;;;;;5078233;28;20189;-71
2022/06/04 11:04:35;;;;;;;7.20;6.70;;;29.60;93.30;;;;;;5088129;28;20187;-73
2022/06/04 11:07:29;;;;;;;7.03;6.35;;;29.40;93.10;;;;;;5083982;28;20612;-75
2022/06/04 11:09:56;;;;;;;6.80;6.22;;;29.20;94.30;;;;;;5090411;28;20225;-75
2022/06/04 11:12:50;;;;;;;6.88;6.40;;;29.40;94.70;;;;;;5084783;28;20189;-74
2022/06/04 11:15:22;;;;;;;7.05;6.45;;;29.70;94.10;;;;;;5092620;28;20190;-74
2022/06/04 11:18:05;;;;;;;7.07;6.57;;;30.20;93.00;;;;;;5093684;28;20190;-75
2022/06/04 11:20:35;;;;;;;7.00;6.30;;;30.80;92.20;;;;;;5084695;28;20278;-75
2022/06/04 11:23:44;;;;;;;7.05;6.45;;;31.30;91.00;;;;;;5087121;28;20185;-71
2022/06/04 11:26:25;;;;;;;5.90;5.50;;;31.60;90.90;;;;;;5076556;28;20250;-70
2022/06/04 11:28:50;;;;;;;6.30;5.90;;;32.40;89.50;;;;;;5089840;28;20193;-70
2022/06/04 11:31:32;;;;;;;5.72;5.38;;;33.40;85.70;;;;;;5093103;28;20584;-70
2022/06/04 11:34:10;;;;;;;5.32;4.93;;;34.60;81.90;;;;;;5088782;28;20190;-70
2022/06/04 11:36:35;;;;;;;4.93;4.63;;;35.70;76.50;;;;;;5087534;28;20230;-70
2022/06/04 11:39:04;;;;;;;5.03;4.72;;;37.30;71.30;;;;;;5093988;28;20178;-70
2022/06/04 11:41:29;;;;;;;5.43;5.03;;;38.30;65.30;;;;;;5082849;28;20199;-70
2022/06/04 11:44:24;;;;;;;5.13;4.82;;;39.20;60.30;;;;;;5078729;28;20182;-71
2022/06/04 11:47:24;;;;;;;4.70;4.40;;;38.70;62.50;;;;;;5087219;28;20607;-71
2022/06/04 11:49:55;;;;;;;4.47;4.18;;;38.30;60.70;;;;;;5081002;28;20382;-70
2022/06/04 11:52:28;;;;;;;4.15;3.88;;;39.10;60.60;;;;;;5084851;28;20184;-70
2022/06/04 11:55:31;;;;;;;3.85;3.58;;;39.10;57.10;;;;;;5093736;28;20181;-71
2022/06/04 11:58:03;;;;;;;4.55;4.25;;;39.30;57.30;;;;;;5080445;28;20189;-70
2022/06/04 12:00:34;;;;;;;4.18;3.90;;;40.60;54.30;;;;;;5084102;28;20204;-70
2022/06/04 12:03:14;;;;;;;4.10;3.80;;;39.70;55.90;;;;;;5076906;28;20171;-71
2022/06/04 12:05:45;;;;;;;4.30;4.00;;;39.40;54.10;;;;;;5073632;28;20589;-70
2022/06/04 12:08:18;;;;;;;4.15;3.83;;;38.00;57.30;;;;;;5074778;28;20533;-70
2022/06/04 12:10:50;;;;;;;4.45;3.90;;;37.30;58.80;;;;;;5074432;28;20197;-70
2022/06/04 12:13:38;;;;;;;4.65;4.32;;;38.00;57.50;;;;;;5086631;28;20185;-69
2022/06/04 12:16:30;;;;;;;4.88;4.47;;;39.00;57.00;;;;;;5085653;28;20592;-71
2022/06/04 12:19:04;;;;;;;4.60;4.30;;;38.80;55.40;;;;;;5088095;28;20628;-71
2022/06/04 12:24:22;;;;;;;5.15;4.32;;;39.50;55.30;;;;;;5086046;28;20191;-71
2022/06/04 12:26:49;;;;;;;4.22;3.92;;;40.70;54.10;;;;;;5088819;28;20269;-70
2022/06/04 12:29:31;;;;;;;4.53;4.13;;;40.50;52.40;;;;;;5086243;28;20591;-71
2022/06/04 12:32:18;;;;;;;4.50;4.10;;;41.60;50.40;;;;;;5085107;28;20203;-70
2022/06/04 12:34:44;;;;;;;5.28;4.50;;;40.70;52.40;;;;;;5081798;28;20850;-71
2022/06/04 12:37:29;;;;;;;5.07;4.68;;;41.90;50.10;;;;;;5083395;28;20247;-70
2022/06/04 12:39:56;;;;;;;4.90;4.53;;;42.70;48.70;;;;;;5084320;28;20194;-71
2022/06/04 12:42:25;;;;;;;4.88;4.03;;;44.60;46.70;;;;;;5080598;28;20209;-72
2022/06/04 12:44:58;;;;;;;4.00;3.80;;;45.90;45.40;;;;;;5084969;28;20247;-70
2022/06/04 12:47:32;;;;;;;4.32;4.13;;;48.40;42.20;;;;;;5087511;28;20185;-70
2022/06/04 12:50:04;;;;;;;3.97;3.72;;;48.40;39.80;;;;;;5084376;28;20256;-70
2022/06/04 12:52:47;;;;;;;4.03;3.83;;;46.60;41.00;;;;;;5085457;28;20273;-71
2022/06/04 12:55:36;;;;;;;4.97;4.55;;;44.70;43.30;;;;;;5077430;28;20264;-70
2022/06/04 12:58:20;;;;;;;4.45;4.15;;;44.10;44.00;;;;;;5090913;28;20176;-70
2022/06/04 13:00:56;;;;;;;4.93;4.45;;;45.10;43.70;;;;;;5089402;28;20289;-72
2022/06/04 13:03:27;;;;;;;4.13;3.92;;;47.20;43.20;;;;;;5084345;28;20686;-72
2022/06/04 13:06:01;;;;;;;4.20;3.90;;;49.30;39.70;;;;;;5087989;28;20680;-71
2022/06/04 13:08:42;;;;;;;4.40;3.80;;;49.30;39.60;;;;;;5092684;28;20189;-71
2022/06/04 13:11:16;;;;;;;4.38;4.07;;;50.20;37.60;;;;;;5089827;28;20197;-71
2022/06/04 13:13:57;;;;;;;4.75;4.45;;;47.00;40.00;;;;;;5091906;28;20169;-71
2022/06/04 13:16:27;;;;;;;4.55;4.22;;;45.40;42.20;;;;;;5090531;28;20592;-73
2022/06/04 13:19:07;;;;;;;3.97;3.70;;;46.10;41.80;;;;;;5089706;28;20182;-73
2022/06/04 13:21:37;;;;;;;4.30;4.00;;;46.70;40.30;;;;;;5084792;28;20201;-72
2022/06/04 13:24:17;;;;;;;4.93;4.43;;;45.80;41.10;;;;;;5090504;28;20181;-72
2022/06/04 13:26:56;;;;;;;5.05;4.28;;;45.00;42.30;;;;;;5087349;28;20296;-72
2022/06/04 13:29:32;;;;;;;4.80;4.50;;;43.40;43.00;;;;;;5091993;28;20185;-71